METAR Data
IDs: Format: Raw Decoded Include TAF

Data at: 0739 UTC 01 Aug 2021

LSMM 010720Z AUTO 00000KT 3800NDV -RA SCT007 BKN010 BKN030 14/14 Q1012 RMK